Time;durP1;ratioP1;P1;durP2;ratioP2;P2;SDS_P1;SDS_P2;PMS_P1;PMS_P2;Temp;Humidity;BMP_temperature;BMP_pressure;BME280_temperature;BME280_humidity;BME280_pressure;Samples;Min_cycle;Max_cycle;Signal;HPM_P1;HPM_P2
2023/06/05 00:00:53;;;;;;;14.13;6.22;;;;;;;;;;5028061;28;20491;-66
2023/06/05 00:03:20;;;;;;;9.55;5.93;;;;;;;;;;5030878;28;20029;-66
2023/06/05 00:05:47;;;;;;;7.95;5.85;;;;;;;;;;5032291;28;20112;-66
2023/06/05 00:08:23;;;;;;;10.80;6.45;;;;;;;;;;5009111;28;20075;-66
2023/06/05 00:10:53;;;;;;;9.70;5.85;;;;;;;;;;5014468;28;20108;-65
2023/06/05 00:13:20;;;;;;;8.68;6.43;;;;;;;;;;5032709;28;20022;-64
2023/06/05 00:15:47;;;;;;;14.20;5.63;;;;;;;;;;5029706;28;20033;-65
2023/06/05 00:18:14;;;;;;;8.68;5.45;;;;;;;;;;5027332;28;20044;-64
2023/06/05 00:20:41;;;;;;;9.23;6.20;;;;;;;;;;5027328;28;20097;-64
2023/06/05 00:23:12;;;;;;;8.90;5.93;;;;;;;;;;5026939;28;20029;-65
2023/06/05 00:25:39;;;;;;;10.90;6.97;;;;;;;;;;5029094;28;20029;-66
2023/06/05 00:28:06;;;;;;;10.70;6.43;;;;;;;;;;5031178;28;20041;-65
2023/06/05 00:30:33;;;;;;;8.02;5.53;;;;;;;;;;5032412;28;20032;-65
2023/06/05 00:33:00;;;;;;;12.65;6.43;;;;;;;;;;5014536;28;20136;-65
2023/06/05 00:35:26;;;;;;;10.80;6.78;;;;;;;;;;5032269;28;20581;-64
2023/06/05 00:37:53;;;;;;;8.13;5.53;;;;;;;;;;5012226;28;20112;-66
2023/06/05 00:40:20;;;;;;;10.15;5.53;;;;;;;;;;5009070;28;20025;-65
2023/06/05 00:42:47;;;;;;;9.00;5.85;;;;;;;;;;5026836;28;20037;-64
2023/06/05 00:45:14;;;;;;;13.43;6.43;;;;;;;;;;5027048;28;20089;-65
2023/06/05 00:47:41;;;;;;;18.23;8.85;;;;;;;;;;5028133;28;20041;-65
2023/06/05 00:50:08;;;;;;;20.92;6.32;;;;;;;;;;5032122;28;20029;-65
2023/06/05 00:52:35;;;;;;;11.77;7.63;;;;;;;;;;5031851;28;20029;-65
2023/06/05 00:55:02;;;;;;;9.35;6.38;;;;;;;;;;5032087;28;20384;-65
2023/06/05 00:57:29;;;;;;;11.95;6.90;;;;;;;;;;5014115;28;20108;-65
2023/06/05 00:59:56;;;;;;;15.65;9.43;;;;;;;;;;5012535;28;20022;-65
2023/06/05 01:02:27;;;;;;;15.82;10.13;;;;;;;;;;5009182;28;20025;-65
2023/06/05 01:04:56;;;;;;;19.25;8.93;;;;;;;;;;5027004;28;20049;-64
2023/06/05 01:07:23;;;;;;;15.45;8.82;;;;;;;;;;5008603;28;20041;-65
2023/06/05 01:09:50;;;;;;;11.18;7.88;;;;;;;;;;5026971;28;20025;-65
2023/06/05 01:12:33;;;;;;;8.85;6.07;;;;;;;;;;5031788;28;20419;-65
2023/06/05 01:15:02;;;;;;;7.40;5.18;;;;;;;;;;5031754;28;20025;-65
2023/06/05 01:17:33;;;;;;;6.05;4.05;;;;;;;;;;5031936;28;20025;-64
2023/06/05 01:20:09;;;;;;;7.57;5.15;;;;;;;;;;5031812;28;20022;-64
2023/06/05 01:22:39;;;;;;;9.10;5.43;;;;;;;;;;5012497;28;20060;-65
2023/06/05 01:25:07;;;;;;;8.33;5.30;;;;;;;;;;5008829;28;20030;-64
2023/06/05 01:27:53;;;;;;;7.03;4.27;;;;;;;;;;5008621;28;20099;-65
2023/06/05 01:30:24;;;;;;;10.37;5.10;;;;;;;;;;5026776;28;20021;-65
2023/06/05 01:32:56;;;;;;;8.40;5.20;;;;;;;;;;5027767;28;20043;-65
2023/06/05 01:35:27;;;;;;;29.03;6.10;;;;;;;;;;5033318;28;20025;-65
2023/06/05 01:37:55;;;;;;;9.93;5.37;;;;;;;;;;5035701;28;20021;-64
2023/06/05 01:40:25;;;;;;;12.67;5.47;;;;;;;;;;5034833;28;20507;-66
2023/06/05 01:42:53;;;;;;;6.87;4.93;;;;;;;;;;5034517;28;20754;-66
2023/06/05 01:45:20;;;;;;;8.97;5.30;;;;;;;;;;5033546;28;20361;-64
2023/06/05 01:47:48;;;;;;;11.67;5.53;;;;;;;;;;5011735;28;20041;-64
2023/06/05 01:50:15;;;;;;;7.13;4.63;;;;;;;;;;5029921;28;20029;-64
2023/06/05 01:52:44;;;;;;;25.10;5.63;;;;;;;;;;5000656;28;20080;-64
2023/06/05 01:55:15;;;;;;;9.97;5.83;;;;;;;;;;5022555;28;20547;-67
2023/06/05 01:57:44;;;;;;;23.57;5.80;;;;;;;;;;5035025;28;20025;-65
2023/06/05 02:00:15;;;;;;;7.97;5.30;;;;;;;;;;5035366;28;20053;-65
2023/06/05 02:02:47;;;;;;;11.03;4.90;;;;;;;;;;5017607;28;20036;-65
2023/06/05 02:05:14;;;;;;;11.20;5.73;;;;;;;;;;5035037;28;20353;-64
2023/06/05 02:07:42;;;;;;;7.37;5.07;;;;;;;;;;5029631;28;20069;-64
2023/06/05 02:10:09;;;;;;;7.93;5.90;;;;;;;;;;5033794;28;20033;-65
2023/06/05 02:12:37;;;;;;;8.73;6.23;;;;;;;;;;5049772;28;20021;-65
2023/06/05 02:15:04;;;;;;;11.93;7.03;;;;;;;;;;5032003;28;20534;-64
2023/06/05 02:17:31;;;;;;;7.80;5.93;;;;;;;;;;5028855;28;20032;-64
2023/06/05 02:19:57;;;;;;;8.00;5.47;;;;;;;;;;5035055;28;20017;-64
2023/06/05 02:22:24;;;;;;;23.90;6.87;;;;;;;;;;5034880;28;20025;-64
2023/06/05 02:24:54;;;;;;;9.57;5.77;;;;;;;;;;5034909;28;20376;-64
2023/06/05 02:27:24;;;;;;;14.67;5.73;;;;;;;;;;5034507;28;20411;-64
2023/06/05 02:29:51;;;;;;;8.47;5.43;;;;;;;;;;5016427;28;20028;-64
2023/06/05 02:32:19;;;;;;;11.43;6.27;;;;;;;;;;5029782;28;20383;-64
2023/06/05 02:34:47;;;;;;;8.53;5.67;;;;;;;;;;5029554;28;20037;-64
2023/06/05 02:37:14;;;;;;;9.97;5.37;;;;;;;;;;5029644;28;20034;-64
2023/06/05 02:39:40;;;;;;;10.10;5.47;;;;;;;;;;5029405;28;20017;-65
2023/06/05 02:42:08;;;;;;;10.53;6.97;;;;;;;;;;5034501;28;20123;-64
2023/06/05 02:44:35;;;;;;;8.40;5.53;;;;;;;;;;5034381;28;20018;-64
2023/06/05 02:47:01;;;;;;;11.97;5.73;;;;;;;;;;5032792;28;20026;-64
2023/06/05 02:49:28;;;;;;;8.53;5.57;;;;;;;;;;5034507;28;20097;-64
2023/06/05 02:51:55;;;;;;;6.87;4.40;;;;;;;;;;5034476;28;20037;-64
2023/06/05 02:54:22;;;;;;;8.27;4.53;;;;;;;;;;5029316;28;20022;-64
2023/06/05 02:56:49;;;;;;;19.03;3.97;;;;;;;;;;5029164;28;20107;-65
2023/06/05 02:59:16;;;;;;;5.80;3.93;;;;;;;;;;5029012;28;20453;-64
2023/06/05 03:01:46;;;;;;;7.90;5.43;;;;;;;;;;5028714;28;20034;-65
2023/06/05 03:04:13;;;;;;;6.83;4.53;;;;;;;;;;5033093;28;20112;-63
2023/06/05 03:06:44;;;;;;;9.73;4.03;;;;;;;;;;5020637;28;20567;-63
2023/06/05 03:09:11;;;;;;;11.60;4.83;;;;;;;;;;5028252;28;20457;-63
2023/06/05 03:11:38;;;;;;;8.17;5.03;;;;;;;;;;5028565;28;20029;-63
2023/06/05 03:14:05;;;;;;;12.57;5.07;;;;;;;;;;5033979;28;20079;-63
2023/06/05 03:16:37;;;;;;;5.67;4.03;;;;;;;;;;5028909;28;20029;-63
2023/06/05 03:19:04;;;;;;;7.73;4.60;;;;;;;;;;5027633;28;20045;-63
2023/06/05 03:21:31;;;;;;;9.70;5.27;;;;;;;;;;5028397;28;20033;-64
2023/06/05 03:23:58;;;;;;;17.33;5.30;;;;;;;;;;5028334;28;20033;-63
2023/06/05 03:26:25;;;;;;;7.13;5.67;;;;;;;;;;5031948;28;20075;-63
2023/06/05 03:28:52;;;;;;;21.10;6.67;;;;;;;;;;5033859;28;20017;-63
2023/06/05 03:31:19;;;;;;;17.47;5.73;;;;;;;;;;5015895;28;20079;-63
2023/06/05 03:33:45;;;;;;;7.57;4.90;;;;;;;;;;5033585;28;20423;-63
2023/06/05 03:36:15;;;;;;;11.13;4.43;;;;;;;;;;5026336;28;20513;-63
2023/06/05 03:38:44;;;;;;;9.07;4.57;;;;;;;;;;5010469;28;20030;-64
2023/06/05 03:41:11;;;;;;;7.83;5.77;;;;;;;;;;5008300;28;20084;-63
2023/06/05 03:43:38;;;;;;;11.03;6.10;;;;;;;;;;5012744;28;20438;-63
2023/06/05 03:46:05;;;;;;;6.70;4.33;;;;;;;;;;5028285;28;20025;-63
2023/06/05 03:48:32;;;;;;;6.63;4.90;;;;;;;;;;5025795;28;20025;-63
2023/06/05 03:51:00;;;;;;;10.73;5.23;;;;;;;;;;5028130;28;20037;-63
2023/06/05 03:53:29;;;;;;;9.63;3.73;;;;;;;;;;5033167;28;20017;-63
2023/06/05 03:55:56;;;;;;;7.90;4.93;;;;;;;;;;5014972;28;20022;-63
2023/06/05 03:58:26;;;;;;;5.90;3.87;;;;;;;;;;5013074;28;20504;-65
2023/06/05 04:00:53;;;;;;;11.07;4.03;;;;;;;;;;5011856;28;20373;-63
2023/06/05 04:03:20;;;;;;;7.00;4.37;;;;;;;;;;5027540;28;20370;-64
2023/06/05 04:05:47;;;;;;;6.93;3.97;;;;;;;;;;5027326;28;20068;-63
2023/06/05 04:08:16;;;;;;;6.37;3.67;;;;;;;;;;5027666;28;20041;-63
2023/06/05 04:10:43;;;;;;;2.93;2.30;;;;;;;;;;5029459;28;20037;-63
2023/06/05 04:13:10;;;;;;;4.83;3.53;;;;;;;;;;5033012;28;20499;-63
2023/06/05 04:15:36;;;;;;;12.13;4.80;;;;;;;;;;5032714;28;20032;-64
2023/06/05 04:18:03;;;;;;;7.23;4.03;;;;;;;;;;5032383;28;20579;-64
2023/06/05 04:20:30;;;;;;;9.73;4.67;;;;;;;;;;5032641;28;20100;-64
2023/06/05 04:22:57;;;;;;;5.70;3.80;;;;;;;;;;5015763;28;20036;-64
2023/06/05 04:25:28;;;;;;;6.63;4.27;;;;;;;;;;5024424;28;20091;-63
2023/06/05 04:27:56;;;;;;;5.47;3.47;;;;;;;;;;5023217;28;20033;-63
2023/06/05 04:30:23;;;;;;;5.50;4.33;;;;;;;;;;5015077;28;20036;-63
2023/06/05 04:32:54;;;;;;;13.87;6.40;;;;;;;;;;5028139;28;20548;-63
2023/06/05 04:35:23;;;;;;;6.53;4.67;;;;;;;;;;5032501;28;20037;-63
2023/06/05 04:37:52;;;;;;;7.80;4.87;;;;;;;;;;5032384;28;20083;-63
2023/06/05 04:40:20;;;;;;;6.87;5.00;;;;;;;;;;5032473;28;20025;-63
2023/06/05 04:42:47;;;;;;;6.67;4.07;;;;;;;;;;5032504;28;20117;-63
2023/06/05 04:45:16;;;;;;;8.40;4.97;;;;;;;;;;5030944;28;20025;-63
2023/06/05 04:47:43;;;;;;;7.27;4.63;;;;;;;;;;5027113;28;20040;-64
2023/06/05 04:50:21;;;;;;;11.27;5.30;;;;;;;;;;5026912;28;20079;-64
2023/06/05 04:52:48;;;;;;;18.43;5.60;;;;;;;;;;5027208;28;20519;-64
2023/06/05 04:55:15;;;;;;;6.63;4.53;;;;;;;;;;5027812;28;20025;-63
2023/06/05 04:57:42;;;;;;;7.10;4.30;;;;;;;;;;5032082;28;20402;-63
2023/06/05 05:00:10;;;;;;;9.13;5.23;;;;;;;;;;5032035;28;20029;-63
2023/06/05 05:02:36;;;;;;;5.03;3.73;;;;;;;;;;5032063;28;20416;-63
2023/06/05 05:05:04;;;;;;;6.20;4.77;;;;;;;;;;5031898;28;20029;-63
2023/06/05 05:07:30;;;;;;;5.80;4.13;;;;;;;;;;5031267;28;20037;-63
2023/06/05 05:09:57;;;;;;;10.60;3.63;;;;;;;;;;5026476;28;20044;-64
2023/06/05 05:12:24;;;;;;;6.53;4.40;;;;;;;;;;5026978;28;20052;-63
2023/06/05 05:14:51;;;;;;;7.40;4.67;;;;;;;;;;5026573;28;20033;-64
2023/06/05 05:17:19;;;;;;;7.10;4.57;;;;;;;;;;5027085;28;20029;-63
2023/06/05 05:19:46;;;;;;;9.13;4.93;;;;;;;;;;5031723;28;20029;-64
2023/06/05 05:22:13;;;;;;;5.30;3.87;;;;;;;;;;5031758;28;20124;-65
2023/06/05 05:24:40;;;;;;;8.80;5.17;;;;;;;;;;5031579;28;20033;-64
2023/06/05 05:27:08;;;;;;;10.57;6.50;;;;;;;;;;5031878;28;20026;-63
2023/06/05 05:29:35;;;;;;;8.83;4.73;;;;;;;;;;5031915;28;20025;-63
2023/06/05 05:32:01;;;;;;;10.93;5.77;;;;;;;;;;5026843;28;20045;-65
2023/06/05 05:34:28;;;;;;;6.40;5.03;;;;;;;;;;5026679;28;20037;-63
2023/06/05 05:36:55;;;;;;;7.37;5.17;;;;;;;;;;5026603;28;20040;-63
2023/06/05 05:39:22;;;;;;;5.70;3.87;;;;;;;;;;5026680;28;20104;-63
2023/06/05 05:41:48;;;;;;;12.07;6.93;;;;;;;;;;5030765;28;20040;-64
2023/06/05 05:44:16;;;;;;;23.03;6.73;;;;;;;;;;5031549;28;20499;-63
2023/06/05 05:46:43;;;;;;;9.07;5.03;;;;;;;;;;5031605;28;20427;-63
2023/06/05 05:49:10;;;;;;;7.20;5.33;;;;;;;;;;5031904;28;20111;-63
2023/06/05 05:51:37;;;;;;;9.27;5.67;;;;;;;;;;5013897;28;20156;-64
2023/06/05 05:54:03;;;;;;;8.70;5.33;;;;;;;;;;5009385;28;20037;-64
2023/06/05 05:56:30;;;;;;;7.20;3.90;;;;;;;;;;5026657;28;20036;-63
2023/06/05 05:58:57;;;;;;;5.27;4.47;;;;;;;;;;5026805;28;20040;-63
2023/06/05 06:01:24;;;;;;;14.33;5.60;;;;;;;;;;5026426;28;20029;-64
2023/06/05 06:03:51;;;;;;;10.50;6.13;;;;;;;;;;5029437;28;20053;-63
2023/06/05 06:06:17;;;;;;;10.23;5.63;;;;;;;;;;5013746;28;20021;-63
2023/06/05 06:08:44;;;;;;;15.57;5.30;;;;;;;;;;5031498;28;20476;-64
2023/06/05 06:11:11;;;;;;;7.47;5.73;;;;;;;;;;5031535;28;20144;-63
2023/06/05 06:13:38;;;;;;;35.27;6.90;;;;;;;;;;5027046;28;20038;-63
2023/06/05 06:16:05;;;;;;;7.30;5.17;;;;;;;;;;5010734;28;20080;-64
2023/06/05 06:18:32;;;;;;;10.50;6.07;;;;;;;;;;5026207;28;20026;-64
2023/06/05 06:20:59;;;;;;;6.63;5.10;;;;;;;;;;5026038;28;20028;-64
2023/06/05 06:23:25;;;;;;;11.83;4.67;;;;;;;;;;5029187;28;20025;-64
2023/06/05 06:25:52;;;;;;;8.00;5.80;;;;;;;;;;5032151;28;20029;-64
2023/06/05 06:28:19;;;;;;;7.80;5.17;;;;;;;;;;5034693;28;20457;-64
2023/06/05 06:30:46;;;;;;;11.00;5.37;;;;;;;;;;5035121;28;20040;-64
2023/06/05 06:33:13;;;;;;;8.47;5.40;;;;;;;;;;5034866;28;20022;-63
2023/06/05 06:35:40;;;;;;;8.53;6.10;;;;;;;;;;5034670;28;20029;-64
2023/06/05 06:38:07;;;;;;;10.00;4.83;;;;;;;;;;5032234;28;20406;-64
2023/06/05 06:40:33;;;;;;;8.87;5.80;;;;;;;;;;5029454;28;20021;-64
2023/06/05 06:43:00;;;;;;;10.90;6.33;;;;;;;;;;5029484;28;20056;-63
2023/06/05 06:45:27;;;;;;;5.93;4.53;;;;;;;;;;5029352;28;20021;-64
2023/06/05 06:47:54;;;;;;;8.17;5.93;;;;;;;;;;5030626;28;20033;-64
2023/06/05 06:50:21;;;;;;;4.93;3.90;;;;;;;;;;5034756;28;20386;-64
2023/06/05 06:52:47;;;;;;;8.37;5.80;;;;;;;;;;5034578;28;20029;-64
2023/06/05 06:55:14;;;;;;;6.87;5.17;;;;;;;;;;5034341;28;20035;-64
2023/06/05 06:57:41;;;;;;;6.60;4.23;;;;;;;;;;5034359;28;20049;-64
2023/06/05 07:00:09;;;;;;;10.63;5.60;;;;;;;;;;5014980;28;20431;-64
2023/06/05 07:02:39;;;;;;;10.37;5.97;;;;;;;;;;5028999;28;20172;-64
2023/06/05 07:05:07;;;;;;;9.00;5.30;;;;;;;;;;5028864;28;20447;-64
2023/06/05 07:07:33;;;;;;;6.23;5.03;;;;;;;;;;5029243;28;20412;-63
2023/06/05 07:10:00;;;;;;;18.53;6.37;;;;;;;;;;5029940;28;20100;-64
2023/06/05 07:12:27;;;;;;;9.73;5.90;;;;;;;;;;5033840;28;20056;-64
2023/06/05 07:14:54;;;;;;;11.23;6.57;;;;;;;;;;5034319;28;20104;-64
2023/06/05 07:17:21;;;;;;;6.43;4.73;;;;;;;;;;5034211;28;20029;-64
2023/06/05 07:19:48;;;;;;;10.13;5.33;;;;;;;;;;5033624;28;20057;-65
2023/06/05 07:22:15;;;;;;;6.93;5.10;;;;;;;;;;5032878;28;20033;-65
2023/06/05 07:24:42;;;;;;;7.03;4.97;;;;;;;;;;5028735;28;20021;-64
2023/06/05 07:27:09;;;;;;;6.90;4.07;;;;;;;;;;5028760;28;20484;-64
2023/06/05 07:29:36;;;;;;;6.50;4.77;;;;;;;;;;5028267;28;20049;-64
2023/06/05 07:32:06;;;;;;;8.67;5.93;;;;;;;;;;5028539;28;20030;-64
2023/06/05 07:34:34;;;;;;;11.50;6.37;;;;;;;;;;5033586;28;20064;-64
2023/06/05 07:37:01;;;;;;;8.57;6.23;;;;;;;;;;5033378;28;20075;-64
2023/06/05 07:39:28;;;;;;;7.80;5.00;;;;;;;;;;5033688;28;20021;-64
2023/06/05 07:41:55;;;;;;;7.83;5.63;;;;;;;;;;5033729;28;20548;-64
2023/06/05 07:44:23;;;;;;;15.30;6.23;;;;;;;;;;5033165;28;20053;-65
2023/06/05 07:46:50;;;;;;;9.37;6.53;;;;;;;;;;5027867;28;20048;-64
2023/06/05 07:49:17;;;;;;;26.07;6.03;;;;;;;;;;5028296;28;20434;-63
2023/06/05 07:51:46;;;;;;;8.47;5.50;;;;;;;;;;5027850;28;20021;-64
2023/06/05 07:54:15;;;;;;;7.63;5.43;;;;;;;;;;5027844;28;20064;-64
2023/06/05 07:56:42;;;;;;;8.17;5.93;;;;;;;;;;5033209;28;20013;-64
2023/06/05 07:59:09;;;;;;;8.20;5.47;;;;;;;;;;5033308;28;20029;-64
2023/06/05 08:01:36;;;;;;;12.53;6.50;;;;;;;;;;5033150;28;20476;-64
2023/06/05 08:04:07;;;;;;;13.53;6.43;;;;;;;;;;5033346;28;20021;-63
2023/06/05 08:06:37;;;;;;;6.57;4.73;;;;;;;;;;5033015;28;20456;-63
2023/06/05 08:09:10;;;;;;;8.07;6.17;;;;;;;;;;5027866;28;20272;-63
2023/06/05 08:11:37;;;;;;;11.53;7.00;;;;;;;;;;5010227;28;20440;-64
2023/06/05 08:14:06;;;;;;;9.93;6.97;;;;;;;;;;5027354;28;20053;-63
2023/06/05 08:16:33;;;;;;;11.20;6.87;;;;;;;;;;5027519;28;20064;-64
2023/06/05 08:18:59;;;;;;;10.97;5.90;;;;;;;;;;5032535;28;20109;-64
2023/06/05 08:21:26;;;;;;;8.90;5.70;;;;;;;;;;5015173;28;20496;-64
2023/06/05 08:23:53;;;;;;;8.53;5.93;;;;;;;;;;5014863;28;20061;-63
2023/06/05 08:26:20;;;;;;;11.87;6.07;;;;;;;;;;5032769;28;20037;-64
2023/06/05 08:28:47;;;;;;;7.70;6.30;;;;;;;;;;5014867;28;20033;-64
2023/06/05 08:31:14;;;;;;;8.37;4.93;;;;;;;;;;5027732;28;20341;-63
2023/06/05 08:33:42;;;;;;;10.23;6.47;;;;;;;;;;5027052;28;20504;-64
2023/06/05 08:36:09;;;;;;;20.87;8.43;;;;;;;;;;5009439;28;20037;-64
2023/06/05 08:38:36;;;;;;;13.27;5.27;;;;;;;;;;5027045;28;20480;-63
2023/06/05 08:41:05;;;;;;;9.63;6.70;;;;;;;;;;5013682;28;20381;-64
2023/06/05 08:43:32;;;;;;;6.67;5.17;;;;;;;;;;5032719;28;20488;-64
2023/06/05 08:45:59;;;;;;;7.97;5.23;;;;;;;;;;5031735;28;20046;-63
2023/06/05 08:48:26;;;;;;;8.20;6.17;;;;;;;;;;5014698;28;20393;-63
2023/06/05 08:50:54;;;;;;;7.77;6.00;;;;;;;;;;5032017;28;20112;-64
2023/06/05 08:53:22;;;;;;;16.03;6.20;;;;;;;;;;5027986;28;20082;-63
2023/06/05 08:55:51;;;;;;;10.87;6.63;;;;;;;;;;5027304;28;20033;-64
2023/06/05 08:58:18;;;;;;;9.07;6.70;;;;;;;;;;5027216;28;20057;-63
2023/06/05 09:00:48;;;;;;;9.80;6.63;;;;;;;;;;5009363;28;20037;-63
2023/06/05 09:03:18;;;;;;;32.63;8.03;;;;;;;;;;5030728;28;20025;-63
2023/06/05 09:05:44;;;;;;;7.00;4.87;;;;;;;;;;5031835;28;20025;-63
2023/06/05 09:08:11;;;;;;;10.07;7.87;;;;;;;;;;5031737;28;20443;-63
2023/06/05 09:10:38;;;;;;;13.83;8.10;;;;;;;;;;5032120;28;20021;-63
2023/06/05 09:13:05;;;;;;;8.53;6.67;;;;;;;;;;5032316;28;20037;-63
2023/06/05 09:15:33;;;;;;;9.20;5.97;;;;;;;;;;5027092;28;20022;-63
2023/06/05 09:18:14;;;;;;;9.83;6.87;;;;;;;;;;5027029;28;20025;-63
2023/06/05 09:20:48;;;;;;;9.30;5.67;;;;;;;;;;5026551;28;20018;-65
2023/06/05 09:23:29;;;;;;;18.23;7.47;;;;;;;;;;5009126;28;20025;-64
2023/06/05 09:25:57;;;;;;;7.23;5.27;;;;;;;;;;5031447;28;20024;-64
2023/06/05 09:28:24;;;;;;;10.63;7.07;;;;;;;;;;5031880;28;20072;-63
2023/06/05 09:30:59;;;;;;;10.87;6.27;;;;;;;;;;5031651;28;20040;-63
2023/06/05 09:33:26;;;;;;;11.32;6.95;;;;;;;;;;5032215;28;20488;-64
2023/06/05 09:36:06;;;;;;;8.73;6.80;;;;;;;;;;5031895;28;20029;-63
2023/06/05 09:38:33;;;;;;;12.50;7.43;;;;;;;;;;5025265;28;20025;-63
2023/06/05 09:41:06;;;;;;;12.27;7.97;;;;;;;;;;5026849;28;20053;-64
2023/06/05 09:43:34;;;;;;;14.60;7.27;;;;;;;;;;5026484;28;20091;-64
2023/06/05 09:46:10;;;;;;;20.33;7.70;;;;;;;;;;5026568;28;20117;-64
2023/06/05 09:48:38;;;;;;;15.67;8.00;;;;;;;;;;5031766;28;20033;-64
2023/06/05 09:51:15;;;;;;;7.67;6.67;;;;;;;;;;5014260;28;20029;-64
2023/06/05 09:53:43;;;;;;;11.23;7.03;;;;;;;;;;5031140;28;20047;-64
2023/06/05 09:56:14;;;;;;;10.47;7.27;;;;;;;;;;5033222;28;20088;-64
2023/06/05 09:58:53;;;;;;;14.70;7.40;;;;;;;;;;5035016;28;20045;-65
2023/06/05 10:01:22;;;;;;;13.23;7.50;;;;;;;;;;5030491;28;20103;-63
2023/06/05 10:03:59;;;;;;;9.70;6.67;;;;;;;;;;5030323;28;20018;-64
2023/06/05 10:06:29;;;;;;;7.77;5.87;;;;;;;;;;5029888;28;20029;-63
2023/06/05 10:08:56;;;;;;;13.57;8.53;;;;;;;;;;5030781;28;20059;-64
2023/06/05 10:11:25;;;;;;;9.50;6.30;;;;;;;;;;5035344;28;20036;-64
2023/06/05 10:13:52;;;;;;;8.20;5.37;;;;;;;;;;5034872;28;20022;-64
2023/06/05 10:16:20;;;;;;;7.07;5.37;;;;;;;;;;5035143;28;20029;-64
2023/06/05 10:18:50;;;;;;;11.07;7.97;;;;;;;;;;5035102;28;20032;-64
2023/06/05 10:21:17;;;;;;;11.47;6.77;;;;;;;;;;5034201;28;20020;-65
2023/06/05 10:23:56;;;;;;;9.63;6.87;;;;;;;;;;5029828;28;20647;-64
2023/06/05 10:26:32;;;;;;;13.93;7.83;;;;;;;;;;5029782;28;20112;-64
2023/06/05 10:29:08;;;;;;;10.23;6.80;;;;;;;;;;5029636;28;20030;-65
2023/06/05 10:31:38;;;;;;;12.63;6.50;;;;;;;;;;5031077;28;20030;-64
2023/06/05 10:34:09;;;;;;;8.97;6.77;;;;;;;;;;5034988;28;20037;-64
2023/06/05 10:37:01;;;;;;;9.67;6.37;;;;;;;;;;5035037;28;20040;-64
2023/06/05 10:39:30;;;;;;;6.47;4.53;;;;;;;;;;5034390;28;20033;-64
2023/06/05 10:41:59;;;;;;;10.33;7.47;;;;;;;;;;5034891;28;20030;-64
2023/06/05 10:44:44;;;;;;;7.80;5.73;;;;;;;;;;5032136;28;20040;-65
2023/06/05 10:47:29;;;;;;;9.40;5.90;;;;;;;;;;5029228;28;20373;-64
2023/06/05 10:50:15;;;;;;;7.63;5.97;;;;;;;;;;5011650;28;20116;-64
2023/06/05 10:52:42;;;;;;;8.68;6.55;;;;;;;;;;5029411;28;20033;-64
2023/06/05 10:55:09;;;;;;;8.43;6.83;;;;;;;;;;5032872;28;20130;-64
2023/06/05 10:58:15;;;;;;;8.00;5.90;;;;;;;;;;5034602;28;20031;-64
2023/06/05 11:01:01;;;;;;;6.32;4.47;;;;;;;;;;4935062;29;20059;-64
2023/06/05 11:03:46;;;;;;;12.73;7.70;;;;;;;;;;4928098;29;20032;-64
2023/06/05 11:06:13;;;;;;;9.68;7.60;;;;;;;;;;4990966;28;20083;-64
2023/06/05 11:08:40;;;;;;;9.23;6.50;;;;;;;;;;5028265;28;20029;-64
2023/06/05 11:11:09;;;;;;;10.03;6.23;;;;;;;;;;5029007;28;20029;-64
2023/06/05 11:13:59;;;;;;;10.20;6.57;;;;;;;;;;5029098;28;20026;-64
2023/06/05 11:16:33;;;;;;;8.33;6.03;;;;;;;;;;5017894;28;20026;-64
2023/06/05 11:19:18;;;;;;;11.88;6.22;;;;;;;;;;5034270;28;20423;-64
2023/06/05 11:22:03;;;;;;;7.82;6.53;;;;;;;;;;5016019;28;20495;-64
2023/06/05 11:24:30;;;;;;;10.35;6.95;;;;;;;;;;5033871;28;20018;-64
2023/06/05 11:26:57;;;;;;;22.30;7.77;;;;;;;;;;5033563;28;20037;-64
2023/06/05 11:29:25;;;;;;;10.73;7.70;;;;;;;;;;5030882;28;20373;-64
2023/06/05 11:31:52;;;;;;;11.63;7.30;;;;;;;;;;5010809;28;20029;-64
2023/06/05 11:34:19;;;;;;;9.67;7.70;;;;;;;;;;5028023;28;20025;-64
2023/06/05 11:36:47;;;;;;;11.37;7.47;;;;;;;;;;5028405;28;20021;-64
2023/06/05 11:39:14;;;;;;;8.47;6.60;;;;;;;;;;5030950;28;20033;-64
2023/06/05 11:41:45;;;;;;;10.97;6.60;;;;;;;;;;5033468;28;20025;-64
2023/06/05 11:44:12;;;;;;;14.23;7.77;;;;;;;;;;5033755;28;20473;-64
2023/06/05 11:46:40;;;;;;;9.23;6.27;;;;;;;;;;5033554;28;20029;-64
2023/06/05 11:49:07;;;;;;;8.80;6.90;;;;;;;;;;5015773;28;20477;-64
2023/06/05 11:51:35;;;;;;;9.90;6.77;;;;;;;;;;5030377;28;20018;-64
2023/06/05 11:54:01;;;;;;;7.03;5.83;;;;;;;;;;5028127;28;20530;-64
2023/06/05 11:56:29;;;;;;;11.07;8.67;;;;;;;;;;5028208;28;20025;-64
2023/06/05 11:58:56;;;;;;;10.60;7.37;;;;;;;;;;5028044;28;20017;-64
2023/06/05 12:01:25;;;;;;;11.57;8.17;;;;;;;;;;5029919;28;20021;-64
2023/06/05 12:04:05;;;;;;;12.20;8.67;;;;;;;;;;5033512;28;20072;-64
2023/06/05 12:06:32;;;;;;;14.13;8.33;;;;;;;;;;5032880;28;20125;-64
2023/06/05 12:09:09;;;;;;;10.17;7.23;;;;;;;;;;5033110;28;20029;-64
2023/06/05 12:11:37;;;;;;;13.23;7.90;;;;;;;;;;5032987;28;20477;-64
2023/06/05 12:14:05;;;;;;;10.67;6.83;;;;;;;;;;5012102;28;20384;-64
2023/06/05 12:16:38;;;;;;;8.37;6.23;;;;;;;;;;5027550;28;20030;-64
2023/06/05 12:19:12;;;;;;;10.33;6.77;;;;;;;;;;5027649;28;20400;-64
2023/06/05 12:21:39;;;;;;;13.50;8.50;;;;;;;;;;5027829;28;20014;-64
2023/06/05 12:24:06;;;;;;;9.50;7.17;;;;;;;;;;5030292;28;20423;-64
2023/06/05 12:26:53;;;;;;;12.67;8.90;;;;;;;;;;5032746;28;20032;-64
2023/06/05 12:29:23;;;;;;;14.43;8.43;;;;;;;;;;5032752;28;20022;-64
2023/06/05 12:31:50;;;;;;;9.27;7.47;;;;;;;;;;5032677;28;20079;-64
2023/06/05 12:34:17;;;;;;;10.57;7.27;;;;;;;;;;5032684;28;20029;-64
2023/06/05 12:36:45;;;;;;;11.10;8.27;;;;;;;;;;5029003;28;20034;-64
2023/06/05 12:39:12;;;;;;;9.33;7.23;;;;;;;;;;5027560;28;20021;-64
2023/06/05 12:41:39;;;;;;;8.00;6.50;;;;;;;;;;5009502;28;20700;-64
2023/06/05 12:44:07;;;;;;;7.83;5.50;;;;;;;;;;5027028;28;20025;-64
2023/06/05 12:46:35;;;;;;;27.37;8.50;;;;;;;;;;5029554;28;20025;-65
2023/06/05 12:49:03;;;;;;;9.87;6.40;;;;;;;;;;5014836;28;20022;-64
2023/06/05 12:51:30;;;;;;;19.07;8.47;;;;;;;;;;5032529;28;20545;-63
2023/06/05 12:53:58;;;;;;;11.23;7.97;;;;;;;;;;5032074;28;20026;-64
2023/06/05 12:56:26;;;;;;;13.90;8.53;;;;;;;;;;5032555;28;20374;-64
2023/06/05 12:58:59;;;;;;;9.77;7.90;;;;;;;;;;5028667;28;20079;-63
2023/06/05 13:01:32;;;;;;;8.52;6.35;;;;;;;;;;5009455;28;20157;-63
2023/06/05 13:03:58;;;;;;;11.33;8.00;;;;;;;;;;5026925;28;20055;-63
2023/06/05 13:06:27;;;;;;;10.93;7.63;;;;;;;;;;5026938;28;20022;-63
2023/06/05 13:08:54;;;;;;;13.60;9.10;;;;;;;;;;5029417;28;20091;-65
2023/06/05 13:11:21;;;;;;;12.73;7.43;;;;;;;;;;5032293;28;20056;-63
2023/06/05 13:13:48;;;;;;;11.23;8.57;;;;;;;;;;5031918;28;20021;-64
2023/06/05 13:16:14;;;;;;;14.80;8.77;;;;;;;;;;5032338;28;20443;-64
2023/06/05 13:18:41;;;;;;;12.47;9.03;;;;;;;;;;5032155;28;20481;-64
2023/06/05 13:21:08;;;;;;;12.77;9.57;;;;;;;;;;5028943;28;20045;-64
2023/06/05 13:23:37;;;;;;;14.03;9.90;;;;;;;;;;5026597;28;20018;-65
2023/06/05 13:26:04;;;;;;;16.60;11.00;;;;;;;;;;5007081;28;20092;-64
2023/06/05 13:28:31;;;;;;;15.90;10.47;;;;;;;;;;5006898;28;20033;-64
2023/06/05 13:30:58;;;;;;;23.30;11.30;;;;;;;;;;5018515;28;20037;-64
2023/06/05 13:33:27;;;;;;;15.63;9.80;;;;;;;;;;5034739;28;20482;-64
2023/06/05 13:35:54;;;;;;;25.97;10.10;;;;;;;;;;5035963;28;20087;-64
2023/06/05 13:38:21;;;;;;;20.67;11.47;;;;;;;;;;5035931;28;20028;-64
2023/06/05 13:40:51;;;;;;;16.20;10.67;;;;;;;;;;5035852;28;20527;-64
2023/06/05 13:43:18;;;;;;;21.50;10.70;;;;;;;;;;5015307;28;20029;-65
2023/06/05 13:45:45;;;;;;;18.80;11.80;;;;;;;;;;5030195;28;20083;-63
2023/06/05 13:48:12;;;;;;;18.17;11.63;;;;;;;;;;5012208;28;20080;-63
2023/06/05 13:50:39;;;;;;;19.90;12.00;;;;;;;;;;5030394;28;20041;-66
2023/06/05 13:53:06;;;;;;;22.87;10.77;;;;;;;;;;5032433;28;20021;-63
2023/06/05 13:55:32;;;;;;;15.47;10.00;;;;;;;;;;5035467;28;20025;-64
2023/06/05 13:58:01;;;;;;;18.67;11.23;;;;;;;;;;5035782;28;20025;-63
2023/06/05 14:00:29;;;;;;;15.33;9.53;;;;;;;;;;5035518;28;20542;-64
2023/06/05 14:02:56;;;;;;;12.80;9.23;;;;;;;;;;5034536;28;20057;-64
2023/06/05 14:05:23;;;;;;;16.17;9.67;;;;;;;;;;5033483;28;20459;-65
2023/06/05 14:07:50;;;;;;;13.43;8.53;;;;;;;;;;5012245;28;20044;-65
2023/06/05 14:10:18;;;;;;;29.97;8.97;;;;;;;;;;5012417;28;20801;-65
2023/06/05 14:12:45;;;;;;;10.80;7.73;;;;;;;;;;5029984;28;20666;-62
2023/06/05 14:15:12;;;;;;;17.20;7.83;;;;;;;;;;5031065;28;20082;-63
2023/06/05 14:17:39;;;;;;;10.57;6.13;;;;;;;;;;5034764;28;20029;-64
2023/06/05 14:20:07;;;;;;;15.60;7.77;;;;;;;;;;5034546;28;20472;-63
2023/06/05 14:22:33;;;;;;;19.07;8.73;;;;;;;;;;5035251;28;20350;-63
2023/06/05 14:25:03;;;;;;;11.43;7.80;;;;;;;;;;5035247;28;20071;-63
2023/06/05 14:27:30;;;;;;;9.20;7.10;;;;;;;;;;5015643;28;20041;-65
2023/06/05 14:30:00;;;;;;;12.57;7.40;;;;;;;;;;5029470;28;20040;-63
2023/06/05 14:32:26;;;;;;;14.40;7.83;;;;;;;;;;5029089;28;20112;-63
2023/06/05 14:34:53;;;;;;;17.37;9.07;;;;;;;;;;5028990;28;20423;-64
2023/06/05 14:37:20;;;;;;;15.07;8.43;;;;;;;;;;5030044;28;20112;-65
2023/06/05 14:39:47;;;;;;;10.73;9.03;;;;;;;;;;5034951;28;20036;-64
2023/06/05 14:42:13;;;;;;;11.17;8.13;;;;;;;;;;5033744;28;20026;-64
2023/06/05 14:44:40;;;;;;;10.57;8.83;;;;;;;;;;5034660;28;20553;-64